Terminal Aerodrome Forecast
Issued by NWS

Home | Current Version | Previous Version | Text Only | Print | Product List | Glossary On
Versions: 1 2 3 4 5 6 7 8 9 10 11 12 13 14 15 16
000
FTUS45 KTFX 290500
TAFHLN
TAF
KHLN 290520Z 2906/3006 27012KT P6SM FEW080
     FM290800 25006KT P6SM SCT250
     FM291200 VRB04KT P6SM BKN250
     FM291800 27010KT P6SM BKN250
     FM300000 27010KT P6SM SCT100
     FM300400 27006KT P6SM BKN250=

USA.gov is the U.S. government's official web portal to all federal, state and local government web resources and services.